UAE80T OMDB-NZAA
Flight info
| Callsign | UAE80T |
|---|---|
| Flight time | N/A |
| Altitude | 29000 |
| Route | ANVIX7F ANVIX L223 TARDI N629 GIDAN P570 EMURU M300 VASTU P895 CIA/N0495F330 P895 BIKOK M641 DOGAR DCT DAOVO DCT PIBED DCT 09S094E 10S095E/N0485F350 DCT POROR DCT 19S106E 21S109E DCT ATLOD DCT ISDOR/N0474F370 DCT LEO DCT 32S128E DCT KAMBI N640 AD V255 BENDO Y12 RELEP DCT MOMSY/N0465F390 DCT MIKEG N759 PEBLU ARADI7B |
| Aircraft | B77L/H-SDE2E3FGHIJ1RWXYZ/LB1D1 |
Departure
| Time | 2026-04-24 21:12 |
|---|---|
| Airport | Dubai International Airport (OMDB) |
Arrival
| Time | N/A |
|---|---|
| Airport | Auckland International Airport (NZAA) |
| Time | Latitude | Longitude | Altitude | Speed | Heading |
|---|---|---|---|---|---|
| 2026-04-24 20:25 | 25.24873 | 55.36293 | 26 ft | 0 kts | 211° |
| 2026-04-24 20:54 | 25.24874 | 55.36294 | 26 ft | 2 kts | 211° |
| 2026-04-24 20:54 | 25.24912 | 55.36332 | 31 ft | 14 kts | 232° |
| 2026-04-24 20:54 | 25.24978 | 55.36463 | 31 ft | 25 kts | 269° |
| 2026-04-24 20:55 | 25.24873 | 55.36293 | 26 ft | 0 kts | 211° |
| 2026-04-24 20:55 | 25.24878 | 55.36296 | 26 ft | 5 kts | 212° |
| 2026-04-24 20:55 | 25.24929 | 55.36363 | 31 ft | 18 kts | 243° |
| 2026-04-24 20:55 | 25.24960 | 55.36459 | 32 ft | 0 kts | 256° |
| 2026-04-24 20:56 | 25.24957 | 55.36416 | 31 ft | 0 kts | 265° |
| 2026-04-24 20:57 | 25.24956 | 55.36405 | 31 ft | 4 kts | 270° |
| 2026-04-24 20:57 | 25.24969 | 55.36341 | 31 ft | 12 kts | 296° |
| 2026-04-24 20:57 | 25.25018 | 55.36248 | 28 ft | 14 kts | 300° |
| 2026-04-24 20:58 | 25.25069 | 55.36155 | 24 ft | 14 kts | 302° |
| 2026-04-24 20:58 | 25.25121 | 55.36062 | 22 ft | 14 kts | 302° |
| 2026-04-24 20:58 | 25.25173 | 55.35969 | 21 ft | 14 kts | 300° |
| 2026-04-24 20:58 | 25.25224 | 55.35875 | 18 ft | 14 kts | 301° |
| 2026-04-24 20:59 | 25.25275 | 55.35781 | 17 ft | 14 kts | 301° |
| 2026-04-24 20:59 | 25.25326 | 55.35687 | 16 ft | 14 kts | 302° |
| 2026-04-24 20:59 | 25.25378 | 55.35594 | 16 ft | 14 kts | 302° |
| 2026-04-24 20:59 | 25.25431 | 55.35502 | 16 ft | 14 kts | 302° |
| 2026-04-24 21:00 | 25.25482 | 55.35410 | 17 ft | 14 kts | 301° |
| 2026-04-24 21:00 | 25.25533 | 55.35316 | 21 ft | 14 kts | 301° |
| 2026-04-24 21:00 | 25.25579 | 55.35233 | 23 ft | 8 kts | 301° |
| 2026-04-24 21:00 | 25.25591 | 55.35213 | 23 ft | 0 kts | 302° |
| 2026-04-24 21:01 | 25.25597 | 55.35201 | 22 ft | 6 kts | 301° |
| 2026-04-24 21:02 | 25.25625 | 55.35164 | 26 ft | 6 kts | 322° |
| 2026-04-24 21:02 | 25.25668 | 55.35161 | 24 ft | 6 kts | 15° |
| 2026-04-24 21:02 | 25.25707 | 55.35180 | 23 ft | 6 kts | 28° |
| 2026-04-24 21:02 | 25.25777 | 55.35226 | 9 ft | 17 kts | 32° |
| 2026-04-24 21:03 | 25.25880 | 55.35295 | 8 ft | 17 kts | 31° |
| 2026-04-24 21:03 | 25.25958 | 55.35362 | 9 ft | 13 kts | 47° |
| 2026-04-24 21:03 | 25.25994 | 55.35453 | 7 ft | 13 kts | 72° |
| 2026-04-24 21:03 | 25.25975 | 55.35548 | 8 ft | 13 kts | 116° |
| 2026-04-24 21:04 | 25.25930 | 55.35635 | 7 ft | 13 kts | 122° |
| 2026-04-24 21:04 | 25.25883 | 55.35720 | 6 ft | 13 kts | 122° |
| 2026-04-24 21:04 | 25.25835 | 55.35805 | 7 ft | 13 kts | 122° |
| 2026-04-24 21:04 | 25.25787 | 55.35890 | 8 ft | 13 kts | 121° |
| 2026-04-24 21:05 | 25.25740 | 55.35974 | 9 ft | 13 kts | 122° |
| 2026-04-24 21:05 | 25.25694 | 55.36060 | 11 ft | 13 kts | 120° |
| 2026-04-24 21:05 | 25.25646 | 55.36145 | 14 ft | 13 kts | 123° |
| 2026-04-24 21:05 | 25.25599 | 55.36230 | 14 ft | 13 kts | 119° |
| 2026-04-24 21:06 | 25.25552 | 55.36316 | 13 ft | 13 kts | 121° |
| 2026-04-24 21:06 | 25.25505 | 55.36401 | 13 ft | 13 kts | 121° |
| 2026-04-24 21:06 | 25.25457 | 55.36486 | 13 ft | 13 kts | 122° |
| 2026-04-24 21:06 | 25.25409 | 55.36573 | 12 ft | 14 kts | 121° |
| 2026-04-24 21:07 | 25.25353 | 55.36672 | 12 ft | 15 kts | 122° |
| 2026-04-24 21:07 | 25.25299 | 55.36772 | 15 ft | 15 kts | 121° |
| 2026-04-24 21:07 | 25.25245 | 55.36873 | 16 ft | 15 kts | 120° |
| 2026-04-24 21:07 | 25.25189 | 55.36973 | 18 ft | 15 kts | 122° |
| 2026-04-24 21:08 | 25.25132 | 55.37072 | 25 ft | 15 kts | 122° |
| 2026-04-24 21:08 | 25.25076 | 55.37172 | 30 ft | 15 kts | 121° |
| 2026-04-24 21:08 | 25.25022 | 55.37274 | 31 ft | 15 kts | 121° |
| 2026-04-24 21:08 | 25.24967 | 55.37374 | 29 ft | 15 kts | 121° |
| 2026-04-24 21:09 | 25.24911 | 55.37474 | 29 ft | 15 kts | 122° |
| 2026-04-24 21:09 | 25.24855 | 55.37574 | 28 ft | 15 kts | 122° |
| 2026-04-24 21:09 | 25.24800 | 55.37672 | 29 ft | 15 kts | 121° |
| 2026-04-24 21:09 | 25.24746 | 55.37774 | 29 ft | 15 kts | 120° |
| 2026-04-24 21:10 | 25.24691 | 55.37874 | 29 ft | 15 kts | 121° |
| 2026-04-24 21:10 | 25.24698 | 55.37966 | 34 ft | 0 kts | 37° |
| 2026-04-24 21:10 | 25.24707 | 55.37973 | 35 ft | 8 kts | 36° |
| 2026-04-24 21:11 | 25.24760 | 55.38005 | 37 ft | 9 kts | 13° |
| 2026-04-24 21:11 | 25.24818 | 55.37977 | 37 ft | 13 kts | 319° |
| 2026-04-24 21:11 | 25.24959 | 55.37736 | 35 ft | 74 kts | 302° |
| 2026-04-24 21:11 | 25.25365 | 55.37016 | 27 ft | 149 kts | 301° |
| 2026-04-24 21:12 | 25.26034 | 55.35825 | 67 ft | 208 kts | 303° |
| 2026-04-24 21:12 | 25.26779 | 55.34483 | 864 ft | 197 kts | 301° |
| 2026-04-24 21:12 | 25.27487 | 55.33200 | 1708 ft | 195 kts | 302° |
| 2026-04-24 21:12 | 25.28205 | 55.31907 | 2374 ft | 200 kts | 302° |
| 2026-04-24 21:13 | 25.28941 | 55.30566 | 2907 ft | 210 kts | 297° |
| 2026-04-24 21:13 | 25.29238 | 55.29051 | 2816 ft | 203 kts | 259° |
| 2026-04-24 21:13 | 25.28717 | 55.27535 | 2778 ft | 221 kts | 247° |
| 2026-04-24 21:13 | 25.28055 | 55.25957 | 3016 ft | 231 kts | 247° |
| 2026-04-24 21:14 | 25.27368 | 55.24321 | 3305 ft | 240 kts | 247° |
| 2026-04-24 21:14 | 25.26658 | 55.22640 | 3627 ft | 249 kts | 246° |
| 2026-04-24 21:14 | 25.25912 | 55.20884 | 4036 ft | 256 kts | 246° |
| 2026-04-24 21:14 | 25.25150 | 55.19096 | 4557 ft | 257 kts | 245° |
| 2026-04-24 21:15 | 25.24099 | 55.17512 | 5014 ft | 259 kts | 216° |
| 2026-04-24 21:15 | 25.22445 | 55.16771 | 5524 ft | 261 kts | 187° |
| 2026-04-24 21:15 | 25.20624 | 55.16800 | 5922 ft | 265 kts | 177° |
| 2026-04-24 21:15 | 25.18819 | 55.17283 | 6186 ft | 273 kts | 149° |
| 2026-04-24 21:16 | 25.17469 | 55.18781 | 6436 ft | 284 kts | 117° |
| 2026-04-24 21:16 | 25.16627 | 55.20786 | 6713 ft | 292 kts | 116° |
| 2026-04-24 21:16 | 25.15727 | 55.22809 | 7210 ft | 295 kts | 118° |
| 2026-04-24 21:16 | 25.14796 | 55.24789 | 7776 ft | 295 kts | 118° |
| 2026-04-24 21:17 | 25.13839 | 55.26794 | 8328 ft | 297 kts | 119° |
| 2026-04-24 21:17 | 25.12867 | 55.28824 | 8811 ft | 301 kts | 119° |
| 2026-04-24 21:17 | 25.11885 | 55.30868 | 9346 ft | 303 kts | 119° |
| 2026-04-24 21:17 | 25.10896 | 55.32923 | 9865 ft | 304 kts | 119° |
| 2026-04-24 21:18 | 25.09963 | 55.35029 | 10364 ft | 306 kts | 115° |
| 2026-04-24 21:18 | 25.09094 | 55.37179 | 10840 ft | 308 kts | 115° |
| 2026-04-24 21:18 | 25.08219 | 55.39341 | 11323 ft | 310 kts | 115° |
| 2026-04-24 21:18 | 25.07332 | 55.41511 | 11807 ft | 311 kts | 115° |
| 2026-04-24 21:19 | 25.06470 | 55.43704 | 12088 ft | 323 kts | 114° |
| 2026-04-24 21:19 | 25.05576 | 55.46043 | 12212 ft | 339 kts | 114° |
| 2026-04-24 21:19 | 25.04642 | 55.48493 | 12348 ft | 355 kts | 114° |
| 2026-04-24 21:19 | 25.03657 | 55.51060 | 12479 ft | 372 kts | 114° |
| 2026-04-24 21:20 | 25.01511 | 55.56508 | 12886 ft | 399 kts | 117° |
| 2026-04-24 21:20 | 25.00126 | 55.59188 | 13285 ft | 406 kts | 122° |
| 2026-04-24 21:20 | 24.98607 | 55.61825 | 13801 ft | 409 kts | 123° |
| 2026-04-24 21:21 | 24.97091 | 55.64487 | 14312 ft | 411 kts | 122° |
| 2026-04-24 21:21 | 24.95622 | 55.67158 | 14795 ft | 414 kts | 121° |
| 2026-04-24 21:21 | 24.94140 | 55.69891 | 15257 ft | 418 kts | 122° |
| 2026-04-24 21:21 | 24.92526 | 55.72571 | 15705 ft | 421 kts | 127° |
| 2026-04-24 21:22 | 24.90773 | 55.75169 | 16160 ft | 425 kts | 128° |
| 2026-04-24 21:22 | 24.88975 | 55.77771 | 16613 ft | 428 kts | 128° |
| 2026-04-24 21:22 | 24.87185 | 55.80405 | 17047 ft | 432 kts | 127° |
| 2026-04-24 21:22 | 24.85397 | 55.83086 | 17483 ft | 436 kts | 127° |
| 2026-04-24 21:23 | 24.83606 | 55.85786 | 17977 ft | 438 kts | 127° |
| 2026-04-24 21:23 | 24.81790 | 55.88492 | 18395 ft | 441 kts | 127° |
| 2026-04-24 21:23 | 24.79977 | 55.91172 | 18765 ft | 444 kts | 127° |
| 2026-04-24 21:23 | 24.78121 | 55.93893 | 19150 ft | 446 kts | 129° |
| 2026-04-24 21:24 | 24.76011 | 55.96403 | 19492 ft | 447 kts | 139° |